sensor_id;sensor_type;location;lat;lon;timestamp;P1;durP1;ratioP1;P2;durP2;ratioP2
13611;SDS011;6877;51.436;6.774;2022-12-18T00:00:25;23.40;;;11.60;;
13611;SDS011;6877;51.436;6.774;2022-12-18T00:02:56;19.47;;;11.63;;
13611;SDS011;6877;51.436;6.774;2022-12-18T00:05:28;17.43;;;10.10;;
13611;SDS011;6877;51.436;6.774;2022-12-18T00:07:54;27.37;;;12.07;;
13611;SDS011;6877;51.436;6.774;2022-12-18T00:10:20;24.20;;;12.33;;
13611;SDS011;6877;51.436;6.774;2022-12-18T00:12:47;25.73;;;11.63;;
13611;SDS011;6877;51.436;6.774;2022-12-18T00:15:13;24.20;;;12.10;;
13611;SDS011;6877;51.436;6.774;2022-12-18T00:17:44;26.77;;;12.07;;
13611;SDS011;6877;51.436;6.774;2022-12-18T00:20:16;23.70;;;11.63;;
13611;SDS011;6877;51.436;6.774;2022-12-18T00:22:53;20.50;;;10.30;;
13611;SDS011;6877;51.436;6.774;2022-12-18T00:25:19;16.97;;;9.03;;
13611;SDS011;6877;51.436;6.774;2022-12-18T00:27:46;23.70;;;11.90;;
13611;SDS011;6877;51.436;6.774;2022-12-18T00:30:12;23.87;;;10.83;;
13611;SDS011;6877;51.436;6.774;2022-12-18T00:32:44;22.93;;;10.23;;
13611;SDS011;6877;51.436;6.774;2022-12-18T00:35:15;19.53;;;8.90;;
13611;SDS011;6877;51.436;6.774;2022-12-18T00:37:42;21.70;;;9.97;;
13611;SDS011;6877;51.436;6.774;2022-12-18T00:40:13;17.30;;;9.17;;
13611;SDS011;6877;51.436;6.774;2022-12-18T00:42:44;19.87;;;9.77;;
13611;SDS011;6877;51.436;6.774;2022-12-18T00:45:24;20.03;;;11.27;;
13611;SDS011;6877;51.436;6.774;2022-12-18T00:47:52;27.30;;;10.33;;
13611;SDS011;6877;51.436;6.774;2022-12-18T00:50:18;22.87;;;11.03;;
13611;SDS011;6877;51.436;6.774;2022-12-18T00:52:52;19.23;;;10.27;;
13611;SDS011;6877;51.436;6.774;2022-12-18T00:55:21;21.00;;;10.33;;
13611;SDS011;6877;51.436;6.774;2022-12-18T00:57:52;18.60;;;10.67;;
13611;SDS011;6877;51.436;6.774;2022-12-18T01:00:19;22.17;;;10.33;;
13611;SDS011;6877;51.436;6.774;2022-12-18T01:02:46;20.43;;;11.23;;
13611;SDS011;6877;51.436;6.774;2022-12-18T01:05:17;19.63;;;10.13;;
13611;SDS011;6877;51.436;6.774;2022-12-18T01:07:44;26.80;;;10.53;;
13611;SDS011;6877;51.436;6.774;2022-12-18T01:10:11;20.73;;;10.07;;
13611;SDS011;6877;51.436;6.774;2022-12-18T01:12:43;19.67;;;9.90;;
13611;SDS011;6877;51.436;6.774;2022-12-18T01:15:15;19.33;;;10.10;;
13611;SDS011;6877;51.436;6.774;2022-12-18T01:17:48;19.37;;;10.03;;
13611;SDS011;6877;51.436;6.774;2022-12-18T01:20:25;18.67;;;9.77;;
13611;SDS011;6877;51.436;6.774;2022-12-18T01:22:56;20.50;;;9.43;;
13611;SDS011;6877;51.436;6.774;2022-12-18T01:25:28;21.10;;;10.70;;
13611;SDS011;6877;51.436;6.774;2022-12-18T01:27:59;17.47;;;11.07;;
13611;SDS011;6877;51.436;6.774;2022-12-18T01:30:30;14.97;;;9.07;;
13611;SDS011;6877;51.436;6.774;2022-12-18T01:32:57;23.90;;;11.07;;
13611;SDS011;6877;51.436;6.774;2022-12-18T01:35:23;16.53;;;9.93;;
13611;SDS011;6877;51.436;6.774;2022-12-18T01:37:55;21.30;;;10.03;;
13611;SDS011;6877;51.436;6.774;2022-12-18T01:40:26;18.67;;;9.57;;
13611;SDS011;6877;51.436;6.774;2022-12-18T01:42:57;21.77;;;10.30;;
13611;SDS011;6877;51.436;6.774;2022-12-18T01:45:29;20.53;;;9.97;;
13611;SDS011;6877;51.436;6.774;2022-12-18T01:48:03;18.73;;;10.57;;
13611;SDS011;6877;51.436;6.774;2022-12-18T01:50:41;23.00;;;9.53;;
13611;SDS011;6877;51.436;6.774;2022-12-18T01:53:19;17.63;;;9.87;;
13611;SDS011;6877;51.436;6.774;2022-12-18T01:55:49;19.37;;;9.40;;
13611;SDS011;6877;51.436;6.774;2022-12-18T01:58:18;17.83;;;8.90;;
13611;SDS011;6877;51.436;6.774;2022-12-18T02:00:54;21.60;;;9.43;;
13611;SDS011;6877;51.436;6.774;2022-12-18T02:03:26;21.23;;;9.40;;
13611;SDS011;6877;51.436;6.774;2022-12-18T02:08:31;25.20;;;10.07;;
13611;SDS011;6877;51.436;6.774;2022-12-18T02:17:05;17.70;;;8.87;;
13611;SDS011;6877;51.436;6.774;2022-12-18T02:27:44;19.30;;;10.00;;
13611;SDS011;6877;51.436;6.774;2022-12-18T02:30:13;27.67;;;9.00;;
13611;SDS011;6877;51.436;6.774;2022-12-18T02:32:42;19.03;;;10.10;;
13611;SDS011;6877;51.436;6.774;2022-12-18T02:35:19;22.63;;;10.00;;
13611;SDS011;6877;51.436;6.774;2022-12-18T02:37:49;22.07;;;9.80;;
13611;SDS011;6877;51.436;6.774;2022-12-18T02:40:16;23.13;;;9.80;;
13611;SDS011;6877;51.436;6.774;2022-12-18T02:42:49;21.47;;;10.57;;
13611;SDS011;6877;51.436;6.774;2022-12-18T02:45:21;16.47;;;9.90;;
13611;SDS011;6877;51.436;6.774;2022-12-18T02:47:52;16.23;;;9.00;;
13611;SDS011;6877;51.436;6.774;2022-12-18T02:50:41;15.37;;;9.30;;
13611;SDS011;6877;51.436;6.774;2022-12-18T02:56:09;18.57;;;9.80;;
13611;SDS011;6877;51.436;6.774;2022-12-18T02:58:47;21.47;;;10.50;;
13611;SDS011;6877;51.436;6.774;2022-12-18T03:01:35;21.73;;;9.73;;
13611;SDS011;6877;51.436;6.774;2022-12-18T03:04:07;16.67;;;8.27;;
13611;SDS011;6877;51.436;6.774;2022-12-18T03:06:47;17.80;;;9.07;;
13611;SDS011;6877;51.436;6.774;2022-12-18T03:09:50;21.77;;;9.43;;
13611;SDS011;6877;51.436;6.774;2022-12-18T03:12:20;16.77;;;8.53;;
13611;SDS011;6877;51.436;6.774;2022-12-18T03:14:51;23.67;;;9.50;;
13611;SDS011;6877;51.436;6.774;2022-12-18T03:17:23;18.87;;;9.47;;
13611;SDS011;6877;51.436;6.774;2022-12-18T03:19:52;23.80;;;10.20;;
13611;SDS011;6877;51.436;6.774;2022-12-18T03:22:22;17.63;;;9.20;;
13611;SDS011;6877;51.436;6.774;2022-12-18T03:24:53;22.77;;;10.20;;
13611;SDS011;6877;51.436;6.774;2022-12-18T03:27:21;21.87;;;9.73;;
13611;SDS011;6877;51.436;6.774;2022-12-18T03:30:00;19.53;;;9.13;;
13611;SDS011;6877;51.436;6.774;2022-12-18T03:32:35;20.83;;;9.57;;
13611;SDS011;6877;51.436;6.774;2022-12-18T03:35:09;18.53;;;8.90;;
13611;SDS011;6877;51.436;6.774;2022-12-18T03:37:39;18.00;;;10.77;;
13611;SDS011;6877;51.436;6.774;2022-12-18T03:40:05;20.23;;;9.40;;
13611;SDS011;6877;51.436;6.774;2022-12-18T03:42:46;23.73;;;10.60;;
13611;SDS011;6877;51.436;6.774;2022-12-18T03:45:22;17.50;;;10.03;;
13611;SDS011;6877;51.436;6.774;2022-12-18T03:47:58;22.00;;;8.93;;
13611;SDS011;6877;51.436;6.774;2022-12-18T03:53:36;22.07;;;10.67;;
13611;SDS011;6877;51.436;6.774;2022-12-18T03:56:13;20.53;;;9.57;;
13611;SDS011;6877;51.436;6.774;2022-12-18T03:58:42;16.97;;;9.60;;
13611;SDS011;6877;51.436;6.774;2022-12-18T04:01:15;22.27;;;10.57;;
13611;SDS011;6877;51.436;6.774;2022-12-18T04:03:44;19.43;;;9.67;;
13611;SDS011;6877;51.436;6.774;2022-12-18T04:06:19;14.53;;;8.93;;
13611;SDS011;6877;51.436;6.774;2022-12-18T04:08:50;17.17;;;10.33;;
13611;SDS011;6877;51.436;6.774;2022-12-18T04:11:17;23.07;;;10.10;;
13611;SDS011;6877;51.436;6.774;2022-12-18T04:13:49;17.37;;;9.20;;
13611;SDS011;6877;51.436;6.774;2022-12-18T04:16:20;24.00;;;9.20;;
13611;SDS011;6877;51.436;6.774;2022-12-18T04:18:52;19.77;;;9.00;;
13611;SDS011;6877;51.436;6.774;2022-12-18T04:21:24;20.33;;;8.23;;
13611;SDS011;6877;51.436;6.774;2022-12-18T04:23:55;15.63;;;7.90;;
13611;SDS011;6877;51.436;6.774;2022-12-18T04:26:27;17.30;;;10.00;;
13611;SDS011;6877;51.436;6.774;2022-12-18T04:28:58;18.13;;;8.23;;
13611;SDS011;6877;51.436;6.774;2022-12-18T04:31:29;15.37;;;7.13;;
13611;SDS011;6877;51.436;6.774;2022-12-18T04:33:56;14.03;;;7.83;;
13611;SDS011;6877;51.436;6.774;2022-12-18T04:36:27;17.77;;;8.27;;
13611;SDS011;6877;51.436;6.774;2022-12-18T04:38:54;18.77;;;8.53;;
13611;SDS011;6877;51.436;6.774;2022-12-18T04:41:20;16.45;;;8.40;;
13611;SDS011;6877;51.436;6.774;2022-12-18T04:43:52;16.93;;;8.30;;
13611;SDS011;6877;51.436;6.774;2022-12-18T04:46:23;18.77;;;9.30;;
13611;SDS011;6877;51.436;6.774;2022-12-18T04:48:55;15.10;;;7.47;;
13611;SDS011;6877;51.436;6.774;2022-12-18T04:51:21;17.57;;;8.03;;
13611;SDS011;6877;51.436;6.774;2022-12-18T04:53:47;18.67;;;8.80;;
13611;SDS011;6877;51.436;6.774;2022-12-18T04:56:14;12.93;;;7.57;;
13611;SDS011;6877;51.436;6.774;2022-12-18T04:58:46;18.38;;;7.90;;
13611;SDS011;6877;51.436;6.774;2022-12-18T05:01:18;20.30;;;7.87;;
13611;SDS011;6877;51.436;6.774;2022-12-18T05:03:50;16.33;;;7.77;;
13611;SDS011;6877;51.436;6.774;2022-12-18T05:06:22;15.97;;;8.10;;
13611;SDS011;6877;51.436;6.774;2022-12-18T05:08:54;16.13;;;8.10;;
13611;SDS011;6877;51.436;6.774;2022-12-18T05:11:25;15.53;;;7.23;;
13611;SDS011;6877;51.436;6.774;2022-12-18T05:13:57;17.00;;;8.33;;
13611;SDS011;6877;51.436;6.774;2022-12-18T05:16:28;15.57;;;7.67;;
13611;SDS011;6877;51.436;6.774;2022-12-18T05:18:59;13.57;;;7.33;;
13611;SDS011;6877;51.436;6.774;2022-12-18T05:21:26;11.27;;;6.50;;
13611;SDS011;6877;51.436;6.774;2022-12-18T05:23:52;16.47;;;8.50;;
13611;SDS011;6877;51.436;6.774;2022-12-18T05:26:19;13.30;;;7.37;;
13611;SDS011;6877;51.436;6.774;2022-12-18T05:28:50;15.17;;;7.77;;
13611;SDS011;6877;51.436;6.774;2022-12-18T05:31:22;12.93;;;7.43;;
13611;SDS011;6877;51.436;6.774;2022-12-18T05:33:48;16.80;;;6.80;;
13611;SDS011;6877;51.436;6.774;2022-12-18T05:36:15;17.73;;;8.03;;
13611;SDS011;6877;51.436;6.774;2022-12-18T05:38:41;14.17;;;7.83;;
13611;SDS011;6877;51.436;6.774;2022-12-18T05:41:08;17.37;;;7.93;;
13611;SDS011;6877;51.436;6.774;2022-12-18T05:43:36;14.07;;;7.00;;
13611;SDS011;6877;51.436;6.774;2022-12-18T05:46:07;15.83;;;7.63;;
13611;SDS011;6877;51.436;6.774;2022-12-18T05:48:42;11.90;;;6.73;;
13611;SDS011;6877;51.436;6.774;2022-12-18T05:51:12;13.23;;;7.33;;
13611;SDS011;6877;51.436;6.774;2022-12-18T05:53:40;14.37;;;6.70;;
13611;SDS011;6877;51.436;6.774;2022-12-18T05:56:10;16.27;;;8.33;;
13611;SDS011;6877;51.436;6.774;2022-12-18T05:58:38;12.60;;;7.00;;
13611;SDS011;6877;51.436;6.774;2022-12-18T06:01:17;14.83;;;7.37;;
13611;SDS011;6877;51.436;6.774;2022-12-18T06:03:45;15.73;;;7.87;;
13611;SDS011;6877;51.436;6.774;2022-12-18T06:06:16;14.37;;;6.80;;
13611;SDS011;6877;51.436;6.774;2022-12-18T06:08:44;17.43;;;7.83;;
13611;SDS011;6877;51.436;6.774;2022-12-18T06:11:11;18.33;;;7.50;;
13611;SDS011;6877;51.436;6.774;2022-12-18T06:13:37;16.33;;;7.20;;
13611;SDS011;6877;51.436;6.774;2022-12-18T06:16:04;12.33;;;6.57;;
13611;SDS011;6877;51.436;6.774;2022-12-18T06:18:36;13.67;;;6.83;;
13611;SDS011;6877;51.436;6.774;2022-12-18T06:21:03;14.53;;;7.97;;
13611;SDS011;6877;51.436;6.774;2022-12-18T06:23:30;17.73;;;7.13;;
13611;SDS011;6877;51.436;6.774;2022-12-18T06:25:56;13.57;;;7.47;;
13611;SDS011;6877;51.436;6.774;2022-12-18T06:28:23;12.80;;;7.00;;
13611;SDS011;6877;51.436;6.774;2022-12-18T06:30:49;14.13;;;7.63;;
13611;SDS011;6877;51.436;6.774;2022-12-18T06:33:25;13.60;;;7.53;;
13611;SDS011;6877;51.436;6.774;2022-12-18T06:35:54;14.70;;;7.83;;
13611;SDS011;6877;51.436;6.774;2022-12-18T06:38:25;15.87;;;7.63;;
13611;SDS011;6877;51.436;6.774;2022-12-18T06:40:51;14.20;;;6.83;;
13611;SDS011;6877;51.436;6.774;2022-12-18T06:43:22;15.00;;;7.03;;
13611;SDS011;6877;51.436;6.774;2022-12-18T06:45:58;15.10;;;6.73;;
13611;SDS011;6877;51.436;6.774;2022-12-18T06:48:25;13.53;;;7.57;;
13611;SDS011;6877;51.436;6.774;2022-12-18T06:50:52;12.87;;;6.30;;
13611;SDS011;6877;51.436;6.774;2022-12-18T06:53:18;12.87;;;7.07;;
13611;SDS011;6877;51.436;6.774;2022-12-18T06:55:49;14.63;;;7.37;;
13611;SDS011;6877;51.436;6.774;2022-12-18T06:58:16;11.77;;;6.70;;
13611;SDS011;6877;51.436;6.774;2022-12-18T07:00:48;18.20;;;7.10;;
13611;SDS011;6877;51.436;6.774;2022-12-18T07:03:19;11.87;;;7.33;;
13611;SDS011;6877;51.436;6.774;2022-12-18T07:05:51;13.27;;;6.77;;
13611;SDS011;6877;51.436;6.774;2022-12-18T07:08:17;10.00;;;5.90;;
13611;SDS011;6877;51.436;6.774;2022-12-18T07:10:43;11.03;;;6.67;;
13611;SDS011;6877;51.436;6.774;2022-12-18T07:13:15;14.70;;;6.60;;
13611;SDS011;6877;51.436;6.774;2022-12-18T07:15:47;12.23;;;6.77;;
13611;SDS011;6877;51.436;6.774;2022-12-18T07:18:18;13.37;;;7.73;;
13611;SDS011;6877;51.436;6.774;2022-12-18T07:20:45;13.43;;;7.20;;
13611;SDS011;6877;51.436;6.774;2022-12-18T07:23:16;10.87;;;7.13;;
13611;SDS011;6877;51.436;6.774;2022-12-18T07:25:48;17.27;;;7.27;;
13611;SDS011;6877;51.436;6.774;2022-12-18T07:28:19;14.63;;;7.80;;
13611;SDS011;6877;51.436;6.774;2022-12-18T07:30:45;15.90;;;7.87;;
13611;SDS011;6877;51.436;6.774;2022-12-18T07:33:12;12.33;;;7.70;;
13611;SDS011;6877;51.436;6.774;2022-12-18T07:35:43;16.00;;;8.57;;
13611;SDS011;6877;51.436;6.774;2022-12-18T07:38:09;11.00;;;6.87;;
13611;SDS011;6877;51.436;6.774;2022-12-18T07:40:36;22.37;;;8.30;;
13611;SDS011;6877;51.436;6.774;2022-12-18T07:43:02;14.53;;;7.90;;
13611;SDS011;6877;51.436;6.774;2022-12-18T07:45:34;10.17;;;6.87;;
13611;SDS011;6877;51.436;6.774;2022-12-18T07:48:05;10.63;;;6.13;;
13611;SDS011;6877;51.436;6.774;2022-12-18T07:50:31;13.20;;;6.97;;
13611;SDS011;6877;51.436;6.774;2022-12-18T07:53:03;15.13;;;8.73;;
13611;SDS011;6877;51.436;6.774;2022-12-18T07:55:31;16.43;;;8.37;;
13611;SDS011;6877;51.436;6.774;2022-12-18T07:58:00;20.70;;;10.53;;
13611;SDS011;6877;51.436;6.774;2022-12-18T08:00:33;19.60;;;9.60;;
13611;SDS011;6877;51.436;6.774;2022-12-18T08:03:05;16.13;;;8.90;;
13611;SDS011;6877;51.436;6.774;2022-12-18T08:05:36;17.50;;;8.23;;
13611;SDS011;6877;51.436;6.774;2022-12-18T08:08:03;20.37;;;10.03;;
13611;SDS011;6877;51.436;6.774;2022-12-18T08:10:29;17.30;;;9.27;;
13611;SDS011;6877;51.436;6.774;2022-12-18T08:13:00;16.27;;;8.63;;
13611;SDS011;6877;51.436;6.774;2022-12-18T08:15:27;18.33;;;8.77;;
13611;SDS011;6877;51.436;6.774;2022-12-18T08:17:58;20.93;;;9.57;;
13611;SDS011;6877;51.436;6.774;2022-12-18T08:20:25;16.70;;;9.53;;
13611;SDS011;6877;51.436;6.774;2022-12-18T08:22:56;28.33;;;10.80;;
13611;SDS011;6877;51.436;6.774;2022-12-18T08:25:29;19.37;;;8.93;;
13611;SDS011;6877;51.436;6.774;2022-12-18T08:28:00;20.83;;;10.33;;
13611;SDS011;6877;51.436;6.774;2022-12-18T08:30:31;19.50;;;10.73;;
13611;SDS011;6877;51.436;6.774;2022-12-18T08:32:58;25.20;;;11.80;;
13611;SDS011;6877;51.436;6.774;2022-12-18T08:35:24;23.43;;;12.70;;
13611;SDS011;6877;51.436;6.774;2022-12-18T08:37:55;23.80;;;13.43;;
13611;SDS011;6877;51.436;6.774;2022-12-18T08:40:22;23.60;;;11.07;;
13611;SDS011;6877;51.436;6.774;2022-12-18T08:42:53;26.63;;;11.33;;
13611;SDS011;6877;51.436;6.774;2022-12-18T08:45:43;20.73;;;10.83;;
13611;SDS011;6877;51.436;6.774;2022-12-18T08:48:14;18.10;;;10.07;;
13611;SDS011;6877;51.436;6.774;2022-12-18T08:50:41;20.63;;;10.57;;
13611;SDS011;6877;51.436;6.774;2022-12-18T08:53:12;21.40;;;9.98;;
13611;SDS011;6877;51.436;6.774;2022-12-18T08:55:43;19.60;;;8.75;;
13611;SDS011;6877;51.436;6.774;2022-12-18T08:58:15;15.63;;;7.68;;
13611;SDS011;6877;51.436;6.774;2022-12-18T09:00:46;20.08;;;9.93;;
13611;SDS011;6877;51.436;6.774;2022-12-18T09:03:17;17.75;;;9.90;;
13611;SDS011;6877;51.436;6.774;2022-12-18T09:05:45;16.95;;;9.50;;
13611;SDS011;6877;51.436;6.774;2022-12-18T09:08:17;23.77;;;9.65;;
13611;SDS011;6877;51.436;6.774;2022-12-18T09:10:44;17.90;;;9.70;;
13611;SDS011;6877;51.436;6.774;2022-12-18T09:13:16;16.77;;;9.95;;
13611;SDS011;6877;51.436;6.774;2022-12-18T09:15:49;15.15;;;8.63;;
13611;SDS011;6877;51.436;6.774;2022-12-18T09:18:23;18.58;;;8.50;;
13611;SDS011;6877;51.436;6.774;2022-12-18T09:20:50;13.60;;;7.88;;
13611;SDS011;6877;51.436;6.774;2022-12-18T09:23:18;15.25;;;7.95;;
13611;SDS011;6877;51.436;6.774;2022-12-18T09:25:45;14.85;;;7.40;;
13611;SDS011;6877;51.436;6.774;2022-12-18T09:28:17;14.00;;;7.60;;
13611;SDS011;6877;51.436;6.774;2022-12-18T09:30:50;12.48;;;6.70;;
13611;SDS011;6877;51.436;6.774;2022-12-18T09:33:21;12.52;;;6.78;;
13611;SDS011;6877;51.436;6.774;2022-12-18T09:35:47;14.38;;;7.55;;
13611;SDS011;6877;51.436;6.774;2022-12-18T09:38:15;16.52;;;8.98;;
13611;SDS011;6877;51.436;6.774;2022-12-18T09:40:43;11.05;;;6.82;;
13611;SDS011;6877;51.436;6.774;2022-12-18T09:43:15;15.85;;;8.38;;
13611;SDS011;6877;51.436;6.774;2022-12-18T09:45:50;13.20;;;7.40;;
13611;SDS011;6877;51.436;6.774;2022-12-18T09:48:26;13.50;;;7.53;;
13611;SDS011;6877;51.436;6.774;2022-12-18T09:51:07;17.48;;;7.90;;
13611;SDS011;6877;51.436;6.774;2022-12-18T09:53:41;11.77;;;6.88;;
13611;SDS011;6877;51.436;6.774;2022-12-18T09:56:18;10.35;;;6.32;;
13611;SDS011;6877;51.436;6.774;2022-12-18T09:58:50;13.45;;;7.95;;
13611;SDS011;6877;51.436;6.774;2022-12-18T10:01:27;12.30;;;6.47;;
13611;SDS011;6877;51.436;6.774;2022-12-18T10:04:00;15.25;;;7.20;;
13611;SDS011;6877;51.436;6.774;2022-12-18T10:06:35;13.02;;;7.07;;
13611;SDS011;6877;51.436;6.774;2022-12-18T10:09:28;10.85;;;6.53;;
13611;SDS011;6877;51.436;6.774;2022-12-18T10:12:08;11.45;;;6.53;;
13611;SDS011;6877;51.436;6.774;2022-12-18T10:20:10;12.52;;;6.55;;
13611;SDS011;6877;51.436;6.774;2022-12-18T10:22:43;12.18;;;6.63;;
13611;SDS011;6877;51.436;6.774;2022-12-18T10:25:21;10.02;;;6.40;;
13611;SDS011;6877;51.436;6.774;2022-12-18T10:28:13;12.82;;;6.32;;
13611;SDS011;6877;51.436;6.774;2022-12-18T10:30:45;13.85;;;7.35;;
13611;SDS011;6877;51.436;6.774;2022-12-18T10:33:19;13.57;;;6.68;;
13611;SDS011;6877;51.436;6.774;2022-12-18T10:35:52;15.98;;;7.15;;
13611;SDS011;6877;51.436;6.774;2022-12-18T10:38:26;14.45;;;7.00;;
13611;SDS011;6877;51.436;6.774;2022-12-18T10:41:00;10.82;;;6.50;;
13611;SDS011;6877;51.436;6.774;2022-12-18T10:51:05;16.00;;;6.95;;
13611;SDS011;6877;51.436;6.774;2022-12-18T10:53:34;13.07;;;6.75;;
13611;SDS011;6877;51.436;6.774;2022-12-18T10:56:03;12.75;;;6.90;;
13611;SDS011;6877;51.436;6.774;2022-12-18T10:58:35;16.33;;;7.43;;
13611;SDS011;6877;51.436;6.774;2022-12-18T11:03:42;11.43;;;6.78;;
13611;SDS011;6877;51.436;6.774;2022-12-18T11:06:24;21.48;;;7.10;;
13611;SDS011;6877;51.436;6.774;2022-12-18T11:09:00;10.45;;;7.63;;
13611;SDS011;6877;51.436;6.774;2022-12-18T11:11:29;14.68;;;8.13;;
13611;SDS011;6877;51.436;6.774;2022-12-18T11:16:43;11.57;;;6.60;;
13611;SDS011;6877;51.436;6.774;2022-12-18T11:19:26;12.25;;;8.05;;
13611;SDS011;6877;51.436;6.774;2022-12-18T11:21:57;13.07;;;7.43;;
13611;SDS011;6877;51.436;6.774;2022-12-18T11:27:13;15.10;;;7.68;;
13611;SDS011;6877;51.436;6.774;2022-12-18T11:29:43;13.38;;;7.22;;
13611;SDS011;6877;51.436;6.774;2022-12-18T11:35:23;14.55;;;8.23;;
13611;SDS011;6877;51.436;6.774;2022-12-18T11:38:02;14.05;;;6.57;;
13611;SDS011;6877;51.436;6.774;2022-12-18T11:40:42;13.85;;;8.50;;
13611;SDS011;6877;51.436;6.774;2022-12-18T11:43:18;20.73;;;7.57;;
13611;SDS011;6877;51.436;6.774;2022-12-18T11:46:08;13.05;;;7.75;;
13611;SDS011;6877;51.436;6.774;2022-12-18T11:48:45;21.00;;;8.02;;
13611;SDS011;6877;51.436;6.774;2022-12-18T11:51:26;10.68;;;6.78;;
13611;SDS011;6877;51.436;6.774;2022-12-18T11:53:58;13.25;;;7.30;;
13611;SDS011;6877;51.436;6.774;2022-12-18T11:56:29;14.07;;;7.82;;
13611;SDS011;6877;51.436;6.774;2022-12-18T12:21:25;16.98;;;8.45;;
13611;SDS011;6877;51.436;6.774;2022-12-18T12:24:03;17.38;;;8.20;;
13611;SDS011;6877;51.436;6.774;2022-12-18T12:26:46;14.75;;;7.72;;
13611;SDS011;6877;51.436;6.774;2022-12-18T12:29:31;19.17;;;7.70;;
13611;SDS011;6877;51.436;6.774;2022-12-18T12:37:41;12.75;;;6.88;;
13611;SDS011;6877;51.436;6.774;2022-12-18T12:40:13;19.27;;;9.77;;
13611;SDS011;6877;51.436;6.774;2022-12-18T12:42:48;19.15;;;7.70;;
13611;SDS011;6877;51.436;6.774;2022-12-18T12:45:45;14.27;;;8.05;;
13611;SDS011;6877;51.436;6.774;2022-12-18T12:49:00;19.67;;;9.40;;
13611;SDS011;6877;51.436;6.774;2022-12-18T12:53:47;21.45;;;9.60;;
13611;SDS011;6877;51.436;6.774;2022-12-18T12:56:16;17.15;;;9.93;;
13611;SDS011;6877;51.436;6.774;2022-12-18T13:01:34;16.23;;;7.85;;
13611;SDS011;6877;51.436;6.774;2022-12-18T13:07:12;18.75;;;9.15;;
13611;SDS011;6877;51.436;6.774;2022-12-18T13:25:49;19.75;;;10.57;;
13611;SDS011;6877;51.436;6.774;2022-12-18T13:28:21;18.58;;;10.18;;
13611;SDS011;6877;51.436;6.774;2022-12-18T13:31:08;15.57;;;8.68;;
13611;SDS011;6877;51.436;6.774;2022-12-18T13:33:39;18.98;;;9.63;;
13611;SDS011;6877;51.436;6.774;2022-12-18T13:41:46;20.45;;;10.45;;
13611;SDS011;6877;51.436;6.774;2022-12-18T13:47:01;19.67;;;10.05;;
13611;SDS011;6877;51.436;6.774;2022-12-18T13:52:17;18.02;;;9.95;;
13611;SDS011;6877;51.436;6.774;2022-12-18T13:54:49;25.83;;;13.23;;
13611;SDS011;6877;51.436;6.774;2022-12-18T13:57:31;24.42;;;11.70;;
13611;SDS011;6877;51.436;6.774;2022-12-18T14:02:49;24.35;;;12.65;;
13611;SDS011;6877;51.436;6.774;2022-12-18T14:07:53;24.50;;;12.40;;
13611;SDS011;6877;51.436;6.774;2022-12-18T14:10:20;23.42;;;11.50;;
13611;SDS011;6877;51.436;6.774;2022-12-18T14:12:48;27.02;;;11.18;;
13611;SDS011;6877;51.436;6.774;2022-12-18T14:17:52;28.70;;;13.07;;
13611;SDS011;6877;51.436;6.774;2022-12-18T14:20:24;19.65;;;10.38;;
13611;SDS011;6877;51.436;6.774;2022-12-18T14:22:51;27.10;;;11.70;;
13611;SDS011;6877;51.436;6.774;2022-12-18T14:30:52;25.58;;;11.13;;
13611;SDS011;6877;51.436;6.774;2022-12-18T14:33:22;21.13;;;11.77;;
13611;SDS011;6877;51.436;6.774;2022-12-18T14:38:30;21.25;;;12.13;;
13611;SDS011;6877;51.436;6.774;2022-12-18T14:43:28;21.17;;;10.88;;
13611;SDS011;6877;51.436;6.774;2022-12-18T14:45:59;26.40;;;12.30;;
13611;SDS011;6877;51.436;6.774;2022-12-18T14:48:40;26.80;;;13.68;;
13611;SDS011;6877;51.436;6.774;2022-12-18T14:51:21;24.83;;;12.48;;
13611;SDS011;6877;51.436;6.774;2022-12-18T14:56:30;28.08;;;14.80;;
13611;SDS011;6877;51.436;6.774;2022-12-18T15:04:04;36.13;;;12.30;;
13611;SDS011;6877;51.436;6.774;2022-12-18T15:07:04;28.30;;;12.75;;
13611;SDS011;6877;51.436;6.774;2022-12-18T15:09:38;23.42;;;11.20;;
13611;SDS011;6877;51.436;6.774;2022-12-18T15:12:32;24.35;;;12.13;;
13611;SDS011;6877;51.436;6.774;2022-12-18T15:15:01;24.35;;;11.57;;
13611;SDS011;6877;51.436;6.774;2022-12-18T15:17:33;24.08;;;11.57;;
13611;SDS011;6877;51.436;6.774;2022-12-18T15:20:00;27.58;;;10.85;;
13611;SDS011;6877;51.436;6.774;2022-12-18T15:22:29;25.02;;;11.57;;
13611;SDS011;6877;51.436;6.774;2022-12-18T15:24:59;23.17;;;12.18;;
13611;SDS011;6877;51.436;6.774;2022-12-18T15:27:33;23.58;;;11.75;;
13611;SDS011;6877;51.436;6.774;2022-12-18T15:32:36;26.40;;;13.50;;
13611;SDS011;6877;51.436;6.774;2022-12-18T15:37:40;27.58;;;13.45;;
13611;SDS011;6877;51.436;6.774;2022-12-18T15:40:12;28.40;;;13.13;;
13611;SDS011;6877;51.436;6.774;2022-12-18T15:42:41;22.85;;;12.30;;
13611;SDS011;6877;51.436;6.774;2022-12-18T15:45:27;31.25;;;12.95;;
13611;SDS011;6877;51.436;6.774;2022-12-18T15:47:54;29.88;;;14.38;;
13611;SDS011;6877;51.436;6.774;2022-12-18T15:50:20;25.33;;;13.10;;
13611;SDS011;6877;51.436;6.774;2022-12-18T15:52:49;26.55;;;12.95;;
13611;SDS011;6877;51.436;6.774;2022-12-18T15:55:18;26.45;;;13.27;;
13611;SDS011;6877;51.436;6.774;2022-12-18T15:58:09;26.92;;;13.88;;
13611;SDS011;6877;51.436;6.774;2022-12-18T16:00:38;26.40;;;12.07;;
13611;SDS011;6877;51.436;6.774;2022-12-18T16:03:06;24.67;;;11.98;;
13611;SDS011;6877;51.436;6.774;2022-12-18T16:05:32;31.73;;;14.27;;
13611;SDS011;6877;51.436;6.774;2022-12-18T16:07:59;29.13;;;14.32;;
13611;SDS011;6877;51.436;6.774;2022-12-18T16:10:25;24.23;;;12.82;;
13611;SDS011;6877;51.436;6.774;2022-12-18T16:12:52;25.15;;;13.15;;
13611;SDS011;6877;51.436;6.774;2022-12-18T16:15:19;26.83;;;14.23;;
13611;SDS011;6877;51.436;6.774;2022-12-18T16:17:51;33.95;;;14.50;;
13611;SDS011;6877;51.436;6.774;2022-12-18T16:20:19;27.42;;;14.00;;
13611;SDS011;6877;51.436;6.774;2022-12-18T16:22:47;34.83;;;15.82;;
13611;SDS011;6877;51.436;6.774;2022-12-18T16:25:25;29.20;;;13.80;;
13611;SDS011;6877;51.436;6.774;2022-12-18T16:27:53;34.30;;;16.88;;
13611;SDS011;6877;51.436;6.774;2022-12-18T16:30:25;26.95;;;14.38;;
13611;SDS011;6877;51.436;6.774;2022-12-18T16:32:57;26.20;;;13.88;;
13611;SDS011;6877;51.436;6.774;2022-12-18T16:35:24;31.08;;;15.05;;
13611;SDS011;6877;51.436;6.774;2022-12-18T16:37:56;34.97;;;14.23;;
13611;SDS011;6877;51.436;6.774;2022-12-18T16:40:23;29.30;;;14.60;;
13611;SDS011;6877;51.436;6.774;2022-12-18T16:42:49;27.83;;;15.70;;
13611;SDS011;6877;51.436;6.774;2022-12-18T16:45:17;33.70;;;16.25;;
13611;SDS011;6877;51.436;6.774;2022-12-18T16:47:49;32.70;;;15.43;;
13611;SDS011;6877;51.436;6.774;2022-12-18T16:50:20;30.08;;;15.48;;
13611;SDS011;6877;51.436;6.774;2022-12-18T16:52:47;30.23;;;15.07;;
13611;SDS011;6877;51.436;6.774;2022-12-18T16:55:13;31.73;;;15.07;;
13611;SDS011;6877;51.436;6.774;2022-12-18T16:57:39;31.90;;;15.48;;
13611;SDS011;6877;51.436;6.774;2022-12-18T17:00:11;31.85;;;14.60;;
13611;SDS011;6877;51.436;6.774;2022-12-18T17:02:43;34.83;;;16.70;;
13611;SDS011;6877;51.436;6.774;2022-12-18T17:05:09;35.58;;;17.08;;
13611;SDS011;6877;51.436;6.774;2022-12-18T17:07:41;33.35;;;16.20;;
13611;SDS011;6877;51.436;6.774;2022-12-18T17:10:07;32.25;;;17.67;;
13611;SDS011;6877;51.436;6.774;2022-12-18T17:12:34;33.85;;;16.73;;
13611;SDS011;6877;51.436;6.774;2022-12-18T17:15:02;32.55;;;16.25;;
13611;SDS011;6877;51.436;6.774;2022-12-18T17:17:29;31.45;;;16.27;;
13611;SDS011;6877;51.436;6.774;2022-12-18T17:19:55;32.67;;;17.05;;
13611;SDS011;6877;51.436;6.774;2022-12-18T17:22:25;34.53;;;16.80;;
13611;SDS011;6877;51.436;6.774;2022-12-18T17:24:51;31.35;;;16.20;;
13611;SDS011;6877;51.436;6.774;2022-12-18T17:27:17;39.38;;;19.05;;
13611;SDS011;6877;51.436;6.774;2022-12-18T17:29:44;34.15;;;17.48;;